createdAt,value
2023-11-12T00:00:37.916Z,75.97
2023-11-12T00:03:24.998Z,76.39
2023-11-12T00:05:52.504Z,76.70
2023-11-12T00:08:19.505Z,77.27
2023-11-12T00:10:47.528Z,77.42
2023-11-12T00:13:14.479Z,77.25
2023-11-12T00:15:41.611Z,77.51
2023-11-12T00:18:08.592Z,77.76
2023-11-12T00:20:35.608Z,76.94
2023-11-12T00:23:02.908Z,77.08
2023-11-12T00:25:29.915Z,77.24
2023-11-12T00:27:57.981Z,77.26
2023-11-12T00:30:24.927Z,77.48
2023-11-12T00:32:53.423Z,77.61
2023-11-12T00:35:20.479Z,78.17
2023-11-12T00:37:47.680Z,78.66
2023-11-12T00:40:14.855Z,78.86
2023-11-12T00:42:41.595Z,78.90
2023-11-12T00:45:09.380Z,78.73
2023-11-12T00:47:36.077Z,78.94
2023-11-12T00:50:04.310Z,78.72
2023-11-12T00:52:31.326Z,78.58
2023-11-12T00:54:58.165Z,78.08
2023-11-12T00:57:25.214Z,78.41
2023-11-12T00:59:52.203Z,78.23
2023-11-12T01:02:19.284Z,78.33
2023-11-12T01:04:46.997Z,77.81
2023-11-12T01:07:13.944Z,77.21
2023-11-12T01:09:41.069Z,77.19
2023-11-12T01:12:09.684Z,76.61
2023-11-12T01:14:36.755Z,76.25
2023-11-12T01:17:06.029Z,75.82
2023-11-12T01:19:33.356Z,75.58
2023-11-12T01:22:00.293Z,75.29
2023-11-12T01:24:27.389Z,75.51
2023-11-12T01:26:54.594Z,75.91
2023-11-12T01:29:21.855Z,76.28
2023-11-12T01:31:48.864Z,76.54
2023-11-12T01:34:16.056Z,76.60
2023-11-12T01:36:43.193Z,77.04
2023-11-12T01:39:10.101Z,77.20
2023-11-12T01:41:37.705Z,76.93
2023-11-12T01:44:04.882Z,76.76
2023-11-12T01:46:33.215Z,76.95
2023-11-12T01:49:00.920Z,76.49
2023-11-12T01:51:32.427Z,76.34
2023-11-12T01:54:00.721Z,75.74
2023-11-12T01:56:29.413Z,75.34
2023-11-12T01:58:59.227Z,75.91
2023-11-12T02:01:26.730Z,75.31
2023-11-12T02:03:55.205Z,75.07
2023-11-12T02:06:22.565Z,75.06
2023-11-12T02:08:49.571Z,75.07
2023-11-12T02:11:17.220Z,74.88
2023-11-12T02:13:44.300Z,75.75
2023-11-12T02:16:11.386Z,75.84
2023-11-12T02:18:38.763Z,75.10
2023-11-12T02:21:06.203Z,74.95
2023-11-12T02:23:38.619Z,75.11
2023-11-12T02:26:05.657Z,75.92
2023-11-12T02:28:32.615Z,76.16
2023-11-12T02:30:59.464Z,75.70
2023-11-12T02:33:28.458Z,75.51
2023-11-12T02:35:56.416Z,75.39
2023-11-12T02:38:24.274Z,75.99
2023-11-12T02:40:52.358Z,76.48
2023-11-12T02:43:20.833Z,76.60
2023-11-12T02:45:48.160Z,77.37
2023-11-12T02:48:15.171Z,76.85
2023-11-12T02:50:42.284Z,76.64
2023-11-12T02:53:11.175Z,76.38
2023-11-12T02:55:38.476Z,75.69
2023-11-12T02:58:05.631Z,75.34
2023-11-12T03:00:33.827Z,75.68
2023-11-12T03:03:02.589Z,75.45
2023-11-12T03:05:32.200Z,75.78
2023-11-12T03:07:59.484Z,75.43
2023-11-12T03:10:27.058Z,75.25
2023-11-12T03:12:54.799Z,75.10
2023-11-12T03:15:24.452Z,75.56
2023-11-12T03:17:51.961Z,74.84
2023-11-12T03:20:19.282Z,74.47
2023-11-12T03:22:46.450Z,75.19
2023-11-12T03:25:13.251Z,74.71
2023-11-12T03:27:40.352Z,74.92
2023-11-12T03:30:09.960Z,74.08
2023-11-12T03:32:36.992Z,73.48
2023-11-12T03:35:05.348Z,73.06
2023-11-12T03:37:32.121Z,72.72
2023-11-12T03:39:58.921Z,72.76
2023-11-12T03:42:25.843Z,72.30
2023-11-12T03:44:52.789Z,72.55
2023-11-12T03:47:19.942Z,73.15
2023-11-12T03:49:46.890Z,73.64
2023-11-12T03:52:14.052Z,73.89
2023-11-12T03:54:41.616Z,73.76
2023-11-12T03:57:10.336Z,73.75
2023-11-12T03:59:37.561Z,74.06
2023-11-12T04:02:05.108Z,73.97
2023-11-12T04:04:32.782Z,74.33
2023-11-12T04:07:00.228Z,74.10
2023-11-12T04:09:27.745Z,74.10
2023-11-12T04:11:54.929Z,74.48
2023-11-12T04:14:22.076Z,74.47
2023-11-12T04:16:49.155Z,74.72
2023-11-12T04:19:16.229Z,74.29
2023-11-12T04:21:46.901Z,74.59
2023-11-12T04:24:14.572Z,74.80
2023-11-12T04:26:41.524Z,74.57
2023-11-12T04:29:09.494Z,74.90
2023-11-12T04:31:37.171Z,74.78
2023-11-12T04:34:04.640Z,74.22
2023-11-12T04:36:35.975Z,73.81
2023-11-12T04:39:04.235Z,74.08
2023-11-12T04:41:31.167Z,74.20
2023-11-12T04:43:57.971Z,74.12
2023-11-12T04:46:26.041Z,74.01
2023-11-12T04:48:53.427Z,73.80
2023-11-12T04:51:21.744Z,73.31
2023-11-12T04:53:49.436Z,73.50
2023-11-12T04:56:16.543Z,73.47
2023-11-12T04:58:43.577Z,73.14
2023-11-12T05:01:10.433Z,72.96
2023-11-12T05:03:37.492Z,72.89
2023-11-12T05:06:05.541Z,72.83
2023-11-12T05:08:32.444Z,72.84
2023-11-12T05:10:59.676Z,72.71
2023-11-12T05:13:26.815Z,72.81
2023-11-12T05:15:53.968Z,72.25
2023-11-12T05:18:22.035Z,71.64
2023-11-12T05:20:49.002Z,71.56
2023-11-12T05:23:16.010Z,71.69
2023-11-12T05:25:43.256Z,71.38
2023-11-12T05:28:10.305Z,70.78
2023-11-12T05:30:38.226Z,70.74
2023-11-12T05:33:05.466Z,70.75
2023-11-12T05:35:32.484Z,70.61
2023-11-12T05:37:59.423Z,70.12
2023-11-12T05:40:26.458Z,70.26
2023-11-12T05:42:53.184Z,70.02
2023-11-12T05:45:20.046Z,70.00
2023-11-12T05:47:47.012Z,69.98
2023-11-12T05:50:15.288Z,69.82
2023-11-12T05:52:43.047Z,69.83
2023-11-12T05:55:11.514Z,69.44
2023-11-12T05:57:38.560Z,69.36
2023-11-12T06:00:11.456Z,68.86
2023-11-12T06:02:41.210Z,68.35
2023-11-12T06:05:08.624Z,67.99
2023-11-12T06:07:35.550Z,66.02
2023-11-12T06:10:03.631Z,63.39
2023-11-12T06:12:30.916Z,60.68
2023-11-12T06:14:58.026Z,59.42
2023-11-12T06:17:27.845Z,58.13
2023-11-12T06:19:54.871Z,56.22
2023-11-12T06:22:21.901Z,54.74
2023-11-12T06:24:48.945Z,54.41
2023-11-12T06:27:16.043Z,53.53
2023-11-12T06:29:44.500Z,52.26
2023-11-12T06:32:11.261Z,52.34
2023-11-12T06:34:38.197Z,51.30
2023-11-12T06:37:05.045Z,51.07
2023-11-12T06:39:32.144Z,50.60
2023-11-12T06:41:59.749Z,49.79
2023-11-12T06:44:27.103Z,49.36
2023-11-12T06:46:54.102Z,48.70
2023-11-12T06:49:21.099Z,47.95
2023-11-12T06:51:47.968Z,46.56
2023-11-12T06:54:14.820Z,46.33
2023-11-12T06:56:41.846Z,46.26
2023-11-12T06:59:08.573Z,46.21
2023-11-12T07:01:37.977Z,45.91
2023-11-12T07:04:06.019Z,45.19
2023-11-12T07:06:33.983Z,44.41
2023-11-12T07:09:00.976Z,44.82
2023-11-12T07:11:28.479Z,44.00
2023-11-12T07:13:55.583Z,43.81
2023-11-12T07:16:23.982Z,43.13
2023-11-12T07:18:54.324Z,42.26
2023-11-12T07:21:30.957Z,41.47
2023-11-12T07:23:58.735Z,42.10
2023-11-12T07:26:26.091Z,41.51
2023-11-12T07:28:54.427Z,40.58
2023-11-12T07:31:23.816Z,40.79
2023-11-12T07:33:52.130Z,40.86
2023-11-12T07:36:19.285Z,39.15
2023-11-12T07:38:46.215Z,39.81
2023-11-12T07:41:12.984Z,39.63
2023-11-12T07:43:39.906Z,39.86
2023-11-12T07:46:07.826Z,38.74
2023-11-12T07:48:35.762Z,38.02
2023-11-12T07:51:02.744Z,37.32
2023-11-12T07:53:29.940Z,37.09
2023-11-12T07:55:56.978Z,37.19
2023-11-12T07:58:23.922Z,37.05
2023-11-12T08:00:50.797Z,36.82
2023-11-12T08:03:17.633Z,36.36
2023-11-12T08:05:46.699Z,35.98
2023-11-12T08:08:13.648Z,35.87
2023-11-12T08:10:40.815Z,36.34
2023-11-12T08:13:08.255Z,35.60
2023-11-12T08:15:35.130Z,34.89
2023-11-12T08:18:01.984Z,34.45
2023-11-12T08:20:29.079Z,33.99
2023-11-12T08:22:55.933Z,34.57
2023-11-12T08:25:22.986Z,33.78
2023-11-12T08:27:49.948Z,33.72
2023-11-12T08:30:17.385Z,33.24
2023-11-12T08:32:44.675Z,33.65
2023-11-12T08:35:11.703Z,33.51
2023-11-12T08:37:38.940Z,32.49
2023-11-12T08:40:08.084Z,31.93
2023-11-12T08:42:35.214Z,32.51
2023-11-12T08:45:04.972Z,32.29
2023-11-12T08:47:32.393Z,31.44
2023-11-12T08:49:59.812Z,31.00
2023-11-12T08:52:26.874Z,30.49
2023-11-12T08:54:54.132Z,30.70
2023-11-12T08:57:21.173Z,30.45
2023-11-12T08:59:48.054Z,30.87
2023-11-12T09:02:15.443Z,30.66
2023-11-12T09:04:42.376Z,30.36
2023-11-12T09:07:09.548Z,30.18
2023-11-12T09:09:36.679Z,30.48
2023-11-12T09:12:04.769Z,29.83
2023-11-12T09:14:31.818Z,28.92
2023-11-12T09:16:59.578Z,29.06
2023-11-12T09:19:26.836Z,28.73
2023-11-12T09:21:54.106Z,29.06
2023-11-12T09:24:20.958Z,28.40
2023-11-12T09:26:48.298Z,29.20
2023-11-12T09:29:15.229Z,28.11
2023-11-12T09:31:42.273Z,27.53
2023-11-12T09:34:09.352Z,28.06
2023-11-12T09:36:36.293Z,28.02
2023-11-12T09:39:04.554Z,27.47
2023-11-12T09:41:32.313Z,27.86
2023-11-12T09:44:04.376Z,27.85
2023-11-12T09:46:32.070Z,27.40
2023-11-12T09:48:59.502Z,27.47
2023-11-12T09:51:27.815Z,27.62
2023-11-12T09:53:55.432Z,27.85
2023-11-12T09:56:25.310Z,27.29
2023-11-12T09:58:53.419Z,26.83
2023-11-12T10:01:21.079Z,27.29
2023-11-12T10:03:49.797Z,27.54
2023-11-12T10:06:21.440Z,26.98
2023-11-12T10:08:50.526Z,26.94
2023-11-12T10:11:23.189Z,27.37
2023-11-12T10:14:00.804Z,26.69
2023-11-12T10:16:32.871Z,26.90
2023-11-12T10:19:18.028Z,26.65
2023-11-12T10:21:59.108Z,27.27
2023-11-12T10:24:30.846Z,26.35
2023-11-12T10:27:02.959Z,25.36
2023-11-12T10:29:30.484Z,25.33
2023-11-12T10:32:00.102Z,24.60
2023-11-12T10:34:27.851Z,23.94
2023-11-12T10:37:14.884Z,23.16
2023-11-12T10:39:44.154Z,23.52
2023-11-12T10:42:25.395Z,23.25
2023-11-12T10:44:56.501Z,23.32
2023-11-12T10:47:25.227Z,23.50
2023-11-12T10:49:53.452Z,23.14
2023-11-12T10:52:20.504Z,22.87
2023-11-12T10:54:48.111Z,23.22
2023-11-12T10:57:15.522Z,23.49
2023-11-12T10:59:45.324Z,23.38
2023-11-12T11:02:20.650Z,22.78
2023-11-12T11:04:48.186Z,22.69
2023-11-12T11:07:16.814Z,23.25
2023-11-12T11:09:44.785Z,23.47
2023-11-12T11:12:13.862Z,22.68
2023-11-12T11:14:40.821Z,22.75
2023-11-12T11:17:09.089Z,22.98
2023-11-12T11:19:45.470Z,22.70
2023-11-12T11:22:27.196Z,22.31
2023-11-12T11:24:55.884Z,22.60
2023-11-12T11:27:26.891Z,22.85
2023-11-12T11:30:25.291Z,23.60
2023-11-12T11:32:55.347Z,22.59
2023-11-12T11:35:24.981Z,21.94
2023-11-12T11:38:10.199Z,22.89
2023-11-12T11:40:38.596Z,22.74
2023-11-12T11:43:24.115Z,22.26
2023-11-12T11:46:18.584Z,22.51
2023-11-12T11:48:48.650Z,22.78
2023-11-12T11:51:31.369Z,21.76
2023-11-12T11:54:03.710Z,21.77
2023-11-12T11:56:31.694Z,21.27
2023-11-12T11:58:59.052Z,21.68
2023-11-12T12:01:26.911Z,21.44
2023-11-12T12:04:06.923Z,21.28
2023-11-12T12:06:34.506Z,20.80
2023-11-12T12:09:01.774Z,20.71
2023-11-12T12:11:29.018Z,21.16
2023-11-12T12:14:01.585Z,21.71
2023-11-12T12:16:29.382Z,21.68
2023-11-12T12:18:57.390Z,21.24
2023-11-12T12:21:25.327Z,21.93
2023-11-12T12:23:53.059Z,21.62
2023-11-12T12:26:25.343Z,21.31
2023-11-12T12:28:53.395Z,21.67
2023-11-12T12:31:20.880Z,21.49
2023-11-12T12:34:08.748Z,21.52
2023-11-12T12:36:36.733Z,21.21
2023-11-12T12:39:11.627Z,21.14
2023-11-12T12:41:38.608Z,21.16
2023-11-12T12:44:07.629Z,21.46
2023-11-12T12:46:48.123Z,21.35
2023-11-12T12:49:33.163Z,20.47
2023-11-12T12:52:03.035Z,20.77
2023-11-12T12:54:31.369Z,21.45
2023-11-12T12:57:00.147Z,21.82
2023-11-12T12:59:38.237Z,21.66
2023-11-12T13:02:06.339Z,21.21
2023-11-12T13:04:35.811Z,21.59
2023-11-12T13:07:07.273Z,22.13
2023-11-12T13:09:34.399Z,22.51
2023-11-12T13:12:04.546Z,22.76
2023-11-12T13:14:34.762Z,22.80
2023-11-12T13:17:01.922Z,22.84
2023-11-12T13:19:28.740Z,22.25
2023-11-12T13:22:02.224Z,21.99
2023-11-12T13:24:30.925Z,21.97
2023-11-12T13:26:58.391Z,22.05
2023-11-12T13:29:27.805Z,22.20
2023-11-12T13:31:57.436Z,22.21
2023-11-12T13:34:24.687Z,22.76
2023-11-12T13:36:52.029Z,23.13
2023-11-12T13:39:19.690Z,23.57
2023-11-12T13:41:47.756Z,23.61
2023-11-12T13:44:15.153Z,23.71
2023-11-12T13:46:42.169Z,23.99
2023-11-12T13:49:09.984Z,24.79
2023-11-12T13:51:40.466Z,24.75
2023-11-12T13:54:11.060Z,25.32
2023-11-12T13:56:39.766Z,26.13
2023-11-12T13:59:06.707Z,26.15
2023-11-12T14:01:33.839Z,26.51
2023-11-12T14:04:01.493Z,26.38
2023-11-12T14:06:28.795Z,26.56
2023-11-12T14:08:56.733Z,26.79
2023-11-12T14:11:23.899Z,27.32
2023-11-12T14:13:51.646Z,28.29
2023-11-12T14:16:18.882Z,28.93
2023-11-12T14:18:46.108Z,30.03
2023-11-12T14:21:13.203Z,30.45
2023-11-12T14:23:40.352Z,30.64
2023-11-12T14:26:08.783Z,31.36
2023-11-12T14:28:36.304Z,31.71
2023-11-12T14:31:07.484Z,32.02
2023-11-12T14:33:35.297Z,32.49
2023-11-12T14:36:02.663Z,32.63
2023-11-12T14:38:30.010Z,33.05
2023-11-12T14:40:56.952Z,33.64
2023-11-12T14:43:24.098Z,34.03
2023-11-12T14:45:51.284Z,34.30
2023-11-12T14:48:20.035Z,34.62
2023-11-12T14:50:48.015Z,34.97
2023-11-12T14:53:16.389Z,34.91
2023-11-12T14:55:43.251Z,34.99
2023-11-12T14:58:10.526Z,35.29
2023-11-12T15:00:37.535Z,35.60
2023-11-12T15:03:07.946Z,36.10
2023-11-12T15:05:36.073Z,36.58
2023-11-12T15:08:04.102Z,37.15
2023-11-12T15:10:31.041Z,37.31
2023-11-12T15:12:58.110Z,37.63
2023-11-12T15:15:25.362Z,37.70
2023-11-12T15:17:52.538Z,38.13
2023-11-12T15:20:19.545Z,38.20
2023-11-12T15:22:47.205Z,38.48
2023-11-12T15:25:14.726Z,38.69
2023-11-12T15:27:46.168Z,38.85
2023-11-12T15:30:14.662Z,39.10
2023-11-12T15:32:43.261Z,39.41
2023-11-12T15:35:13.998Z,39.57
2023-11-12T15:37:41.270Z,39.89
2023-11-12T15:40:14.973Z,40.49
2023-11-12T15:42:44.019Z,40.64
2023-11-12T15:45:12.481Z,40.67
2023-11-12T15:47:40.413Z,41.28
2023-11-12T15:50:13.020Z,41.90
2023-11-12T15:52:40.962Z,42.17
2023-11-12T15:55:09.361Z,42.37
2023-11-12T15:57:37.738Z,42.10
2023-11-12T16:00:13.478Z,42.31
2023-11-12T16:02:41.562Z,42.64
2023-11-12T16:05:10.443Z,42.64
2023-11-12T16:07:40.043Z,42.80
2023-11-12T16:10:09.392Z,43.11
2023-11-12T16:12:37.334Z,42.96
2023-11-12T16:15:07.540Z,43.12
2023-11-12T16:17:34.407Z,43.37
2023-11-12T16:20:01.545Z,43.46
2023-11-12T16:22:28.692Z,43.47
2023-11-12T16:24:55.689Z,43.81
2023-11-12T16:27:22.688Z,44.02
2023-11-12T16:29:49.726Z,44.02
2023-11-12T16:32:20.503Z,44.30
2023-11-12T16:34:47.283Z,44.48
2023-11-12T16:37:15.162Z,44.61
2023-11-12T16:39:47.001Z,45.10
2023-11-12T16:42:20.511Z,44.97
2023-11-12T16:44:47.578Z,45.02
2023-11-12T16:47:17.110Z,45.41
2023-11-12T16:49:45.963Z,45.61
2023-11-12T16:52:13.419Z,45.65
2023-11-12T16:54:40.394Z,45.87
2023-11-12T16:57:10.479Z,46.13
2023-11-12T16:59:41.725Z,46.57
2023-11-12T17:02:10.949Z,46.74
2023-11-12T17:04:38.994Z,46.71
2023-11-12T17:07:11.195Z,46.77
2023-11-12T17:09:39.272Z,47.24
2023-11-12T17:12:07.018Z,47.54
2023-11-12T17:14:34.265Z,47.73
2023-11-12T17:17:01.091Z,48.14
2023-11-12T17:19:28.664Z,48.55
2023-11-12T17:21:57.266Z,48.76
2023-11-12T17:24:24.407Z,48.91
2023-11-12T17:26:51.799Z,49.15
2023-11-12T17:29:20.760Z,49.07
2023-11-12T17:31:51.380Z,49.13
2023-11-12T17:34:19.549Z,49.20
2023-11-12T17:36:48.993Z,49.50
2023-11-12T17:39:22.096Z,49.64
2023-11-12T17:41:50.733Z,50.02
2023-11-12T17:44:17.977Z,50.06
2023-11-12T17:46:45.318Z,50.32
2023-11-12T17:49:12.876Z,50.58
2023-11-12T17:51:40.905Z,50.54
2023-11-12T17:54:07.918Z,51.40
2023-11-12T17:56:37.626Z,52.27
2023-11-12T17:59:05.811Z,53.21
2023-11-12T18:01:33.065Z,53.54
2023-11-12T18:04:02.735Z,54.55
2023-11-12T18:06:29.910Z,55.08
2023-11-12T18:08:56.687Z,55.83
2023-11-12T18:11:23.972Z,55.61
2023-11-12T18:13:50.871Z,55.26
2023-11-12T18:16:20.624Z,54.77
2023-11-12T18:18:48.130Z,54.81
2023-11-12T18:21:15.883Z,55.28
2023-11-12T18:23:43.404Z,56.35
2023-11-12T18:26:12.027Z,56.32
2023-11-12T18:28:39.100Z,56.79
2023-11-12T18:31:06.660Z,56.76
2023-11-12T18:33:35.748Z,57.14
2023-11-12T18:36:02.778Z,57.50
2023-11-12T18:38:29.639Z,57.83
2023-11-12T18:40:56.777Z,58.70
2023-11-12T18:43:25.356Z,58.28
2023-11-12T18:45:56.632Z,58.17
2023-11-12T18:48:24.568Z,57.97
2023-11-12T18:50:52.221Z,57.42
2023-11-12T18:53:21.943Z,58.55
2023-11-12T18:55:51.654Z,58.07
2023-11-12T18:58:18.513Z,58.36
2023-11-12T19:00:45.927Z,57.62
2023-11-12T19:03:13.422Z,58.39
2023-11-12T19:05:41.686Z,60.00
2023-11-12T19:08:13.865Z,59.55
2023-11-12T19:10:40.900Z,60.14
2023-11-12T19:13:09.023Z,59.81
2023-11-12T19:15:39.510Z,61.76
2023-11-12T19:18:06.620Z,60.85
2023-11-12T19:20:40.666Z,59.97
2023-11-12T19:23:07.714Z,61.89
2023-11-12T19:25:40.387Z,61.06
2023-11-12T19:28:07.210Z,59.99
2023-11-12T19:30:35.144Z,63.50
2023-11-12T19:33:02.754Z,65.43
2023-11-12T19:35:29.824Z,66.21
2023-11-12T19:37:59.819Z,64.07
2023-11-12T19:40:26.705Z,65.66
2023-11-12T19:42:54.173Z,66.02
2023-11-12T19:45:21.483Z,66.66
2023-11-12T19:47:54.686Z,65.42
2023-11-12T19:50:24.326Z,63.92
2023-11-12T19:52:51.432Z,62.72
2023-11-12T19:55:19.625Z,63.70
2023-11-12T19:57:46.590Z,63.42
2023-11-12T20:00:14.305Z,64.02
2023-11-12T20:02:41.320Z,64.54
2023-11-12T20:05:08.990Z,65.58
2023-11-12T20:07:36.237Z,65.75
2023-11-12T20:10:04.692Z,65.30
2023-11-12T20:12:31.596Z,66.32
2023-11-12T20:15:02.030Z,65.38
2023-11-12T20:17:29.518Z,66.08
2023-11-12T20:19:56.634Z,66.05
2023-11-12T20:22:23.580Z,66.40
2023-11-12T20:24:51.006Z,65.81
2023-11-12T20:27:19.420Z,66.35
2023-11-12T20:29:47.408Z,66.87
2023-11-12T20:32:15.804Z,66.24
2023-11-12T20:34:45.168Z,65.86
2023-11-12T20:37:14.257Z,66.16
2023-11-12T20:39:41.347Z,67.38
2023-11-12T20:42:11.230Z,66.43
2023-11-12T20:44:41.476Z,68.10
2023-11-12T20:47:11.727Z,68.15
2023-11-12T20:49:43.529Z,66.80
2023-11-12T20:52:10.522Z,65.44
2023-11-12T20:54:40.448Z,65.09
2023-11-12T20:57:07.713Z,68.20
2023-11-12T20:59:34.875Z,68.58
2023-11-12T21:02:10.256Z,67.78
2023-11-12T21:04:45.607Z,67.02
2023-11-12T21:07:13.351Z,66.85
2023-11-12T21:09:40.299Z,68.58
2023-11-12T21:12:08.569Z,69.42
2023-11-12T21:14:35.725Z,69.63
2023-11-12T21:17:02.844Z,70.87
2023-11-12T21:19:29.918Z,70.59
2023-11-12T21:21:56.777Z,70.18
2023-11-12T21:24:23.702Z,69.25
2023-11-12T21:26:50.916Z,69.52
2023-11-12T21:29:18.527Z,68.51
2023-11-12T21:31:46.541Z,67.90
2023-11-12T21:34:14.641Z,67.47
2023-11-12T21:36:42.091Z,67.46
2023-11-12T21:39:11.117Z,67.41
2023-11-12T21:41:39.179Z,68.10
2023-11-12T21:44:09.205Z,68.92
2023-11-12T21:46:36.373Z,69.46
2023-11-12T21:49:05.340Z,69.47
2023-11-12T21:51:33.012Z,69.23
2023-11-12T21:53:59.843Z,69.55
2023-11-12T21:56:28.428Z,69.27
2023-11-12T21:58:55.275Z,69.70
2023-11-12T22:01:24.955Z,69.49
2023-11-12T22:03:52.080Z,70.71
2023-11-12T22:06:19.688Z,70.88
2023-11-12T22:08:46.523Z,69.87
2023-11-12T22:11:13.473Z,69.69
2023-11-12T22:13:41.039Z,69.20
2023-11-12T22:16:09.469Z,68.65
2023-11-12T22:18:36.575Z,68.33
2023-11-12T22:21:05.052Z,67.87
2023-11-12T22:23:32.002Z,68.74
2023-11-12T22:25:58.999Z,69.08
2023-11-12T22:28:25.905Z,68.25
2023-11-12T22:30:53.093Z,67.93
2023-11-12T22:33:20.078Z,67.63
2023-11-12T22:35:47.847Z,67.73
2023-11-12T22:38:14.796Z,68.68
2023-11-12T22:40:42.562Z,68.30
2023-11-12T22:43:09.623Z,68.27
2023-11-12T22:45:37.574Z,68.00
2023-11-12T22:48:05.500Z,67.64
2023-11-12T22:50:32.828Z,67.48
2023-11-12T22:52:59.845Z,67.30
2023-11-12T22:55:26.748Z,66.96
2023-11-12T22:57:53.788Z,67.34
2023-11-12T23:00:40.600Z,67.89
2023-11-12T23:03:15.820Z,67.67
2023-11-12T23:05:52.154Z,67.78
2023-11-12T23:08:20.332Z,68.08
2023-11-12T23:10:49.015Z,67.56
2023-11-12T23:13:18.136Z,67.27
2023-11-12T23:15:45.717Z,67.03
2023-11-12T23:18:13.592Z,67.06
2023-11-12T23:20:40.703Z,67.26
2023-11-12T23:23:08.857Z,67.21
2023-11-12T23:25:35.814Z,66.92
2023-11-12T23:28:03.430Z,67.68
2023-11-12T23:30:31.179Z,67.87
2023-11-12T23:32:58.016Z,67.61
2023-11-12T23:35:26.754Z,67.83
2023-11-12T23:37:54.068Z,67.05
2023-11-12T23:40:21.085Z,66.46
2023-11-12T23:42:48.185Z,66.60
2023-11-12T23:45:15.408Z,66.64
2023-11-12T23:47:42.410Z,66.46
2023-11-12T23:50:10.678Z,66.36
2023-11-12T23:52:37.830Z,66.19
2023-11-12T23:55:06.009Z,66.76
2023-11-12T23:57:34.595Z,66.60
